sensor_id;sensor_type;location;lat;lon;timestamp;pressure;altitude;pressure_sealevel;temperature;humidity
69257;BME280;56376;53.356;-1.748;2023-03-26T00:00:47;98238.22;;;6.23;100.00
69257;BME280;56376;53.356;-1.748;2023-03-26T00:03:18;98235.63;;;6.23;100.00
69257;BME280;56376;53.356;-1.748;2023-03-26T00:05:44;98243.31;;;6.24;100.00
69257;BME280;56376;53.356;-1.748;2023-03-26T00:08:14;98242.34;;;6.27;100.00
69257;BME280;56376;53.356;-1.748;2023-03-26T00:10:41;98244.06;;;6.28;100.00
69257;BME280;56376;53.356;-1.748;2023-03-26T00:13:08;98244.06;;;6.28;100.00
69257;BME280;56376;53.356;-1.748;2023-03-26T00:15:35;98241.34;;;6.31;100.00
69257;BME280;56376;53.356;-1.748;2023-03-26T00:18:00;98245.56;;;6.34;100.00
69257;BME280;56376;53.356;-1.748;2023-03-26T00:20:27;98242.00;;;6.36;100.00
69257;BME280;56376;53.356;-1.748;2023-03-26T00:22:53;98249.66;;;6.39;100.00
69257;BME280;56376;53.356;-1.748;2023-03-26T00:25:20;98240.13;;;6.40;100.00
69257;BME280;56376;53.356;-1.748;2023-03-26T00:27:45;98241.88;;;6.39;100.00
69257;BME280;56376;53.356;-1.748;2023-03-26T00:30:11;98238.28;;;6.43;100.00
69257;BME280;56376;53.356;-1.748;2023-03-26T00:32:37;98228.78;;;6.42;100.00
69257;BME280;56376;53.356;-1.748;2023-03-26T00:35:03;98233.09;;;6.43;100.00
69257;BME280;56376;53.356;-1.748;2023-03-26T00:37:28;98231.28;;;6.45;100.00
69257;BME280;56376;53.356;-1.748;2023-03-26T00:39:55;98230.53;;;6.42;100.00
69257;BME280;56376;53.356;-1.748;2023-03-26T00:42:27;98238.28;;;6.43;100.00
69257;BME280;56376;53.356;-1.748;2023-03-26T00:44:53;98239.94;;;6.44;100.00
69257;BME280;56376;53.356;-1.748;2023-03-26T00:47:19;98233.88;;;6.45;100.00
69257;BME280;56376;53.356;-1.748;2023-03-26T00:49:45;98230.34;;;6.46;100.00
69257;BME280;56376;53.356;-1.748;2023-03-26T00:52:13;98219.97;;;6.46;100.00
69257;BME280;56376;53.356;-1.748;2023-03-26T00:54:39;98214.84;;;6.45;100.00
69257;BME280;56376;53.356;-1.748;2023-03-26T00:57:04;98216.59;;;6.44;100.00
69257;BME280;56376;53.356;-1.748;2023-03-26T00:59:31;98226.28;;;6.41;100.00
69257;BME280;56376;53.356;-1.748;2023-03-26T01:02:00;98222.94;;;6.37;100.00
69257;BME280;56376;53.356;-1.748;2023-03-26T01:04:28;98221.22;;;6.38;100.00
69257;BME280;56376;53.356;-1.748;2023-03-26T01:06:56;98218.66;;;6.36;100.00
69257;BME280;56376;53.356;-1.748;2023-03-26T01:09:28;98222.09;;;6.37;100.00
69257;BME280;56376;53.356;-1.748;2023-03-26T01:11:56;98218.66;;;6.36;100.00
69257;BME280;56376;53.356;-1.748;2023-03-26T01:14:24;98218.66;;;6.36;100.00
69257;BME280;56376;53.356;-1.748;2023-03-26T01:17:01;98209.13;;;6.37;100.00
69257;BME280;56376;53.356;-1.748;2023-03-26T01:19:54;98214.25;;;6.38;100.00
69257;BME280;56376;53.356;-1.748;2023-03-26T01:22:24;98217.69;;;6.39;100.00
69257;BME280;56376;53.356;-1.748;2023-03-26T01:24:51;98218.63;;;6.38;100.00
69257;BME280;56376;53.356;-1.748;2023-03-26T01:43:37;98215.38;;;6.33;100.00
69257;BME280;56376;53.356;-1.748;2023-03-26T01:46:08;98216.25;;;6.32;100.00
69257;BME280;56376;53.356;-1.748;2023-03-26T01:48:37;98205.97;;;6.30;100.00
69257;BME280;56376;53.356;-1.748;2023-03-26T01:51:04;98214.03;;;6.22;100.00
69257;BME280;56376;53.356;-1.748;2023-03-26T01:53:32;98213.19;;;6.22;100.00
69257;BME280;56376;53.356;-1.748;2023-03-26T02:01:31;98208.13;;;6.19;100.00
69257;BME280;56376;53.356;-1.748;2023-03-26T02:04:23;98213.31;;;6.19;100.00
69257;BME280;56376;53.356;-1.748;2023-03-26T02:09:33;98214.41;;;6.13;100.00
69257;BME280;56376;53.356;-1.748;2023-03-26T02:12:02;98214.56;;;6.09;100.00
69257;BME280;56376;53.356;-1.748;2023-03-26T02:14:29;98207.81;;;6.04;100.00
69257;BME280;56376;53.356;-1.748;2023-03-26T02:16:55;98214.56;;;6.09;100.00
69257;BME280;56376;53.356;-1.748;2023-03-26T02:19:21;98207.72;;;6.07;100.00
69257;BME280;56376;53.356;-1.748;2023-03-26T02:21:49;98200.03;;;6.04;100.00
69257;BME280;56376;53.356;-1.748;2023-03-26T02:24:18;98195.09;;;5.98;100.00
69257;BME280;56376;53.356;-1.748;2023-03-26T02:26:44;98202.03;;;5.98;100.00
69257;BME280;56376;53.356;-1.748;2023-03-26T02:29:11;98203.09;;;5.92;100.00
69257;BME280;56376;53.356;-1.748;2023-03-26T02:31:37;98192.72;;;5.92;100.00
69257;BME280;56376;53.356;-1.748;2023-03-26T02:34:02;98196.19;;;5.91;100.00
69257;BME280;56376;53.356;-1.748;2023-03-26T02:36:28;98186.75;;;5.90;100.00
69257;BME280;56376;53.356;-1.748;2023-03-26T02:38:54;98193.59;;;5.91;100.00
69257;BME280;56376;53.356;-1.748;2023-03-26T02:41:22;98188.44;;;5.91;100.00
69257;BME280;56376;53.356;-1.748;2023-03-26T02:43:47;98185.97;;;5.88;100.00
69257;BME280;56376;53.356;-1.748;2023-03-26T02:46:12;98196.38;;;5.86;100.00
69257;BME280;56376;53.356;-1.748;2023-03-26T02:48:38;98186.94;;;5.85;100.00
69257;BME280;56376;53.356;-1.748;2023-03-26T02:51:05;98199.88;;;5.85;100.00
69257;BME280;56376;53.356;-1.748;2023-03-26T02:53:31;98191.13;;;5.88;100.00
69257;BME280;56376;53.356;-1.748;2023-03-26T02:55:58;98196.28;;;5.90;100.00
69257;BME280;56376;53.356;-1.748;2023-03-26T02:58:24;98191.97;;;5.89;100.00
69257;BME280;56376;53.356;-1.748;2023-03-26T03:00:53;98202.41;;;5.87;100.00
69257;BME280;56376;53.356;-1.748;2023-03-26T03:03:21;98200.09;;;5.79;100.00
69257;BME280;56376;53.356;-1.748;2023-03-26T03:05:49;98203.56;;;5.80;100.00
69257;BME280;56376;53.356;-1.748;2023-03-26T03:08:17;98208.63;;;5.83;100.00
69257;BME280;56376;53.356;-1.748;2023-03-26T03:10:53;98199.03;;;5.85;100.00
69257;BME280;56376;53.356;-1.748;2023-03-26T03:13:19;98204.16;;;5.86;100.00
69257;BME280;56376;53.356;-1.748;2023-03-26T03:15:44;98201.56;;;5.86;100.00
69257;BME280;56376;53.356;-1.748;2023-03-26T03:18:09;98195.59;;;5.84;100.00
69257;BME280;56376;53.356;-1.748;2023-03-26T03:20:35;98190.59;;;5.80;100.00
69257;BME280;56376;53.356;-1.748;2023-03-26T03:23:00;98197.59;;;5.78;100.00
69257;BME280;56376;53.356;-1.748;2023-03-26T03:25:26;98200.97;;;5.80;100.00
69257;BME280;56376;53.356;-1.748;2023-03-26T03:27:51;98195.13;;;5.75;100.00
69257;BME280;56376;53.356;-1.748;2023-03-26T03:30:18;98206.38;;;5.74;100.00
69257;BME280;56376;53.356;-1.748;2023-03-26T03:32:43;98214.72;;;5.58;100.00
69257;BME280;56376;53.356;-1.748;2023-03-26T03:35:08;98216.63;;;5.53;100.00
69257;BME280;56376;53.356;-1.748;2023-03-26T03:37:34;98214.84;;;5.55;100.00
69257;BME280;56376;53.356;-1.748;2023-03-26T03:39:59;98214.72;;;5.58;100.00
69257;BME280;56376;53.356;-1.748;2023-03-26T03:42:25;98211.13;;;5.62;100.00
69257;BME280;56376;53.356;-1.748;2023-03-26T03:44:51;98208.44;;;5.64;100.00
69257;BME280;56376;53.356;-1.748;2023-03-26T03:47:17;98210.09;;;5.67;100.00
69257;BME280;56376;53.356;-1.748;2023-03-26T03:49:42;98200.59;;;5.67;100.00
69257;BME280;56376;53.356;-1.748;2023-03-26T03:52:07;98207.50;;;5.67;100.00
69257;BME280;56376;53.356;-1.748;2023-03-26T03:54:33;98213.72;;;5.62;100.00
69257;BME280;56376;53.356;-1.748;2023-03-26T03:56:58;98210.38;;;5.59;100.00
69257;BME280;56376;53.356;-1.748;2023-03-26T03:59:24;98210.59;;;5.53;100.00
69257;BME280;56376;53.356;-1.748;2023-03-26T04:01:49;98191.69;;;5.51;100.00
69257;BME280;56376;53.356;-1.748;2023-03-26T04:04:15;98204.47;;;5.55;100.00
69257;BME280;56376;53.356;-1.748;2023-03-26T04:06:41;98207.91;;;5.56;100.00
69257;BME280;56376;53.356;-1.748;2023-03-26T04:09:07;98196.75;;;5.54;100.00
69257;BME280;56376;53.356;-1.748;2023-03-26T04:11:34;98199.25;;;5.57;100.00
69257;BME280;56376;53.356;-1.748;2023-03-26T04:14:00;98204.31;;;5.60;100.00
69257;BME280;56376;53.356;-1.748;2023-03-26T04:16:25;98204.34;;;5.58;100.00
69257;BME280;56376;53.356;-1.748;2023-03-26T04:18:50;98210.31;;;5.60;100.00
69257;BME280;56376;53.356;-1.748;2023-03-26T04:21:16;98203.50;;;5.58;100.00
69257;BME280;56376;53.356;-1.748;2023-03-26T04:23:41;98218.13;;;5.59;100.00
69257;BME280;56376;53.356;-1.748;2023-03-26T04:26:07;98218.22;;;5.57;100.00
69257;BME280;56376;53.356;-1.748;2023-03-26T04:28:44;98209.66;;;5.55;100.00
69257;BME280;56376;53.356;-1.748;2023-03-26T04:31:15;98219.38;;;5.49;100.00
69257;BME280;56376;53.356;-1.748;2023-03-26T04:33:45;98210.09;;;5.43;100.00
69257;BME280;56376;53.356;-1.748;2023-03-26T04:36:13;98204.13;;;5.41;100.00
69257;BME280;56376;53.356;-1.748;2023-03-26T04:38:43;98212.06;;;5.36;100.00
69257;BME280;56376;53.356;-1.748;2023-03-26T04:41:11;98212.25;;;5.32;100.00
69257;BME280;56376;53.356;-1.748;2023-03-26T04:43:37;98215.88;;;5.26;100.00
69257;BME280;56376;53.356;-1.748;2023-03-26T04:46:07;98210.81;;;5.23;100.00
69257;BME280;56376;53.356;-1.748;2023-03-26T04:48:35;98214.31;;;5.22;100.00
69257;BME280;56376;53.356;-1.748;2023-03-26T04:51:00;98203.09;;;5.21;100.00
69257;BME280;56376;53.356;-1.748;2023-03-26T04:53:26;98209.13;;;5.22;100.00
69257;BME280;56376;53.356;-1.748;2023-03-26T04:55:56;98221.59;;;5.11;100.00
69257;BME280;56376;53.356;-1.748;2023-03-26T04:58:23;98207.09;;;5.07;100.00
69257;BME280;56376;53.356;-1.748;2023-03-26T05:00:54;98216.81;;;5.00;100.00
69257;BME280;56376;53.356;-1.748;2023-03-26T05:03:19;98224.34;;;5.06;100.00
69257;BME280;56376;53.356;-1.748;2023-03-26T05:05:45;98222.69;;;5.04;100.00
69257;BME280;56376;53.356;-1.748;2023-03-26T05:08:10;98224.56;;;5.00;100.00
69257;BME280;56376;53.356;-1.748;2023-03-26T05:10:36;98231.41;;;5.01;100.00
69257;BME280;56376;53.356;-1.748;2023-03-26T05:13:01;98234.00;;;5.01;100.00
69257;BME280;56376;53.356;-1.748;2023-03-26T05:15:26;98246.94;;;5.01;100.00
69257;BME280;56376;53.356;-1.748;2023-03-26T05:17:52;98247.72;;;5.05;100.00
69257;BME280;56376;53.356;-1.748;2023-03-26T05:20:26;98237.63;;;4.97;100.00
69257;BME280;56376;53.356;-1.748;2023-03-26T05:22:53;98240.34;;;4.92;100.00
69257;BME280;56376;53.356;-1.748;2023-03-26T05:25:19;98249.19;;;4.87;100.00
69257;BME280;56376;53.356;-1.748;2023-03-26T05:27:45;98263.78;;;4.88;100.00
69257;BME280;56376;53.356;-1.748;2023-03-26T05:30:19;98268.84;;;4.91;100.00
69257;BME280;56376;53.356;-1.748;2023-03-26T05:32:46;98263.75;;;4.89;100.00
69257;BME280;56376;53.356;-1.748;2023-03-26T05:35:13;98258.63;;;4.88;100.00
69257;BME280;56376;53.356;-1.748;2023-03-26T05:37:41;98265.53;;;4.87;100.00
69257;BME280;56376;53.356;-1.748;2023-03-26T05:40:08;98281.91;;;4.88;100.00
69257;BME280;56376;53.356;-1.748;2023-03-26T05:42:37;98277.63;;;4.87;100.00
69257;BME280;56376;53.356;-1.748;2023-03-26T05:45:04;98284.59;;;4.85;100.00
69257;BME280;56376;53.356;-1.748;2023-03-26T05:47:30;98284.47;;;4.89;100.00
69257;BME280;56376;53.356;-1.748;2023-03-26T05:49:56;98280.97;;;4.90;100.00
69257;BME280;56376;53.356;-1.748;2023-03-26T05:52:21;98281.88;;;4.89;100.00
69257;BME280;56376;53.356;-1.748;2023-03-26T05:54:46;98294.66;;;4.94;100.00
69257;BME280;56376;53.356;-1.748;2023-03-26T05:57:12;98291.16;;;4.95;100.00
69257;BME280;56376;53.356;-1.748;2023-03-26T05:59:37;98298.78;;;4.99;100.00
69257;BME280;56376;53.356;-1.748;2023-03-26T06:02:02;98291.72;;;5.05;100.00
69257;BME280;56376;53.356;-1.748;2023-03-26T06:04:28;98315.94;;;5.02;100.00
69257;BME280;56376;53.356;-1.748;2023-03-26T06:06:53;98311.66;;;5.01;100.00
69257;BME280;56376;53.356;-1.748;2023-03-26T06:09:19;98311.59;;;5.03;100.00
69257;BME280;56376;53.356;-1.748;2023-03-26T06:11:44;98318.44;;;5.05;100.00
69257;BME280;56376;53.356;-1.748;2023-03-26T06:14:09;98320.91;;;5.08;100.00
69257;BME280;56376;53.356;-1.748;2023-03-26T06:16:36;98321.75;;;5.09;100.00
69257;BME280;56376;53.356;-1.748;2023-03-26T06:19:01;98324.50;;;5.04;100.00
69257;BME280;56376;53.356;-1.748;2023-03-26T06:21:27;98335.84;;;5.00;100.00
69257;BME280;56376;53.356;-1.748;2023-03-26T06:23:53;98328.88;;;5.02;100.00
69257;BME280;56376;53.356;-1.748;2023-03-26T06:26:18;98343.72;;;4.97;100.00
69257;BME280;56376;53.356;-1.748;2023-03-26T06:28:44;98339.34;;;4.99;100.00
69257;BME280;56376;53.356;-1.748;2023-03-26T06:31:10;98354.88;;;4.99;100.00
69257;BME280;56376;53.356;-1.748;2023-03-26T06:33:36;98349.78;;;4.96;100.00
69257;BME280;56376;53.356;-1.748;2023-03-26T06:36:01;98356.66;;;4.97;100.00
69257;BME280;56376;53.356;-1.748;2023-03-26T06:38:26;98360.94;;;4.98;100.00
69257;BME280;56376;53.356;-1.748;2023-03-26T06:40:52;98361.72;;;5.00;100.00
69257;BME280;56376;53.356;-1.748;2023-03-26T06:43:18;98363.41;;;5.01;100.00
69257;BME280;56376;53.356;-1.748;2023-03-26T06:45:43;98372.78;;;5.05;100.00
69257;BME280;56376;53.356;-1.748;2023-03-26T06:48:08;98377.22;;;5.02;100.00
69257;BME280;56376;53.356;-1.748;2023-03-26T06:50:34;98378.06;;;5.02;100.00
69257;BME280;56376;53.356;-1.748;2023-03-26T06:52:59;98382.56;;;4.95;100.00
69257;BME280;56376;53.356;-1.748;2023-03-26T06:55:25;98387.75;;;4.95;100.00
69257;BME280;56376;53.356;-1.748;2023-03-26T06:57:53;98399.63;;;5.01;100.00
69257;BME280;56376;53.356;-1.748;2023-03-26T07:00:19;98395.34;;;5.02;100.00
69257;BME280;56376;53.356;-1.748;2023-03-26T07:02:45;98396.28;;;4.99;100.00
69257;BME280;56376;53.356;-1.748;2023-03-26T07:05:11;98403.09;;;5.02;100.00
69257;BME280;56376;53.356;-1.748;2023-03-26T07:07:38;98410.81;;;5.03;100.00
69257;BME280;56376;53.356;-1.748;2023-03-26T07:10:04;98415.94;;;5.05;100.00
69257;BME280;56376;53.356;-1.748;2023-03-26T07:12:29;98407.16;;;5.09;100.00
69257;BME280;56376;53.356;-1.748;2023-03-26T07:14:55;98421.84;;;5.08;100.00
69257;BME280;56376;53.356;-1.748;2023-03-26T07:17:20;98420.97;;;5.09;100.00
69257;BME280;56376;53.356;-1.748;2023-03-26T07:19:46;98420.16;;;5.07;100.00
69257;BME280;56376;53.356;-1.748;2023-03-26T07:22:19;98429.97;;;4.97;100.00
69257;BME280;56376;53.356;-1.748;2023-03-26T07:24:45;98430.91;;;4.95;100.00
69257;BME280;56376;53.356;-1.748;2023-03-26T07:32:39;98459.41;;;4.93;100.00
69257;BME280;56376;53.356;-1.748;2023-03-26T07:35:24;98454.22;;;4.93;100.00
69257;BME280;56376;53.356;-1.748;2023-03-26T07:38:18;98452.53;;;4.92;100.00
69257;BME280;56376;53.356;-1.748;2023-03-26T07:46:12;98477.53;;;4.93;100.00
69257;BME280;56376;53.356;-1.748;2023-03-26T07:48:40;98480.31;;;4.87;100.00
69257;BME280;56376;53.356;-1.748;2023-03-26T07:51:07;98479.50;;;4.85;100.00
69257;BME280;56376;53.356;-1.748;2023-03-26T07:53:33;98488.88;;;4.89;100.00
69257;BME280;56376;53.356;-1.748;2023-03-26T08:15:40;98527.56;;;4.94;100.00
69257;BME280;56376;53.356;-1.748;2023-03-26T08:21:12;98531.09;;;4.91;100.00
69257;BME280;56376;53.356;-1.748;2023-03-26T08:23:54;98536.09;;;4.96;100.00
69257;BME280;56376;53.356;-1.748;2023-03-26T08:32:17;98552.53;;;4.95;100.00
69257;BME280;56376;53.356;-1.748;2023-03-26T08:34:43;98563.69;;;4.97;100.00
69257;BME280;56376;53.356;-1.748;2023-03-26T08:37:08;98560.09;;;5.01;100.00
69257;BME280;56376;53.356;-1.748;2023-03-26T08:39:35;98568.66;;;5.05;100.00
69257;BME280;56376;53.356;-1.748;2023-03-26T08:42:23;98574.63;;;5.07;100.00
69257;BME280;56376;53.356;-1.748;2023-03-26T08:48:15;98590.28;;;5.02;100.00
69257;BME280;56376;53.356;-1.748;2023-03-26T08:53:45;98598.81;;;5.06;100.00
69257;BME280;56376;53.356;-1.748;2023-03-26T09:02:46;98612.66;;;5.05;100.00
69257;BME280;56376;53.356;-1.748;2023-03-26T09:17:37;98624.53;;;5.12;100.00
69257;BME280;56376;53.356;-1.748;2023-03-26T09:27:38;98646.81;;;5.17;100.00
69257;BME280;56376;53.356;-1.748;2023-03-26T09:35:54;98657.69;;;5.29;100.00
69257;BME280;56376;53.356;-1.748;2023-03-26T09:41:41;98657.34;;;5.69;100.00
69257;BME280;56376;53.356;-1.748;2023-03-26T09:53:07;98678.34;;;6.18;95.13
69257;BME280;56376;53.356;-1.748;2023-03-26T10:13:10;98721.03;;;6.07;88.29
69257;BME280;56376;53.356;-1.748;2023-03-26T10:32:24;98747.63;;;6.67;88.00
69257;BME280;56376;53.356;-1.748;2023-03-26T10:41:05;98776.66;;;6.54;84.04
69257;BME280;56376;53.356;-1.748;2023-03-26T10:43:47;98787.31;;;6.44;85.05
69257;BME280;56376;53.356;-1.748;2023-03-26T10:52:09;98788.91;;;6.48;86.27
69257;BME280;56376;53.356;-1.748;2023-03-26T10:54:47;98798.94;;;6.59;87.65
69257;BME280;56376;53.356;-1.748;2023-03-26T10:59:41;98810.59;;;6.74;86.09
69257;BME280;56376;53.356;-1.748;2023-03-26T11:02:29;98808.91;;;6.73;85.79
69257;BME280;56376;53.356;-1.748;2023-03-26T11:07:31;98810.31;;;6.83;88.22
69257;BME280;56376;53.356;-1.748;2023-03-26T11:10:10;98825.28;;;7.02;88.93
69257;BME280;56376;53.356;-1.748;2023-03-26T11:15:37;98827.66;;;7.08;86.49
69257;BME280;56376;53.356;-1.748;2023-03-26T11:18:15;98831.69;;;7.17;85.07
69257;BME280;56376;53.356;-1.748;2023-03-26T11:21:07;98843.75;;;7.19;82.84
69257;BME280;56376;53.356;-1.748;2023-03-26T11:23:45;98838.31;;;7.25;81.12
69257;BME280;56376;53.356;-1.748;2023-03-26T11:26:15;98833.88;;;7.29;80.95
69257;BME280;56376;53.356;-1.748;2023-03-26T11:34:24;98857.53;;;7.21;78.82
69257;BME280;56376;53.356;-1.748;2023-03-26T11:36:53;98860.06;;;7.23;79.91
69257;BME280;56376;53.356;-1.748;2023-03-26T11:39:24;98862.31;;;7.33;81.73
69257;BME280;56376;53.356;-1.748;2023-03-26T11:41:58;98863.63;;;7.45;80.10
69257;BME280;56376;53.356;-1.748;2023-03-26T11:44:52;98867.44;;;7.60;80.47
69257;BME280;56376;53.356;-1.748;2023-03-26T11:47:22;98881.81;;;7.70;79.80
69257;BME280;56376;53.356;-1.748;2023-03-26T11:49:50;98879.03;;;7.76;79.48
69257;BME280;56376;53.356;-1.748;2023-03-26T11:52:17;98897.13;;;7.79;78.89
69257;BME280;56376;53.356;-1.748;2023-03-26T11:54:42;98890.28;;;7.77;79.58
69257;BME280;56376;53.356;-1.748;2023-03-26T11:57:28;98902.44;;;7.76;79.78
69257;BME280;56376;53.356;-1.748;2023-03-26T12:00:00;98912.13;;;7.71;77.26
69257;BME280;56376;53.356;-1.748;2023-03-26T12:02:40;98936.75;;;7.61;80.90
69257;BME280;56376;53.356;-1.748;2023-03-26T12:07:44;98942.25;;;7.52;80.19
69257;BME280;56376;53.356;-1.748;2023-03-26T12:12:55;98945.09;;;7.44;81.06
69257;BME280;56376;53.356;-1.748;2023-03-26T12:15:21;98950.22;;;7.46;81.94
69257;BME280;56376;53.356;-1.748;2023-03-26T12:17:49;98957.97;;;7.47;83.35
69257;BME280;56376;53.356;-1.748;2023-03-26T12:20:31;98965.13;;;7.41;80.97
69257;BME280;56376;53.356;-1.748;2023-03-26T12:22:59;98983.31;;;7.41;82.02
69257;BME280;56376;53.356;-1.748;2023-03-26T12:28:04;98985.38;;;7.31;83.54
69257;BME280;56376;53.356;-1.748;2023-03-26T12:30:35;98998.44;;;7.28;83.27
69257;BME280;56376;53.356;-1.748;2023-03-26T12:33:05;99001.13;;;7.25;83.42
69257;BME280;56376;53.356;-1.748;2023-03-26T12:35:33;99021.09;;;7.23;84.83
69257;BME280;56376;53.356;-1.748;2023-03-26T12:41:16;99022.06;;;7.20;83.03
69257;BME280;56376;53.356;-1.748;2023-03-26T12:43:50;99030.03;;;7.14;81.81
69257;BME280;56376;53.356;-1.748;2023-03-26T12:46:34;99032.66;;;7.14;82.45
69257;BME280;56376;53.356;-1.748;2023-03-26T12:49:04;99029.97;;;7.15;82.15
69257;BME280;56376;53.356;-1.748;2023-03-26T12:54:14;99046.13;;;7.25;81.19
69257;BME280;56376;53.356;-1.748;2023-03-26T13:19:47;99064.06;;;7.34;79.43
69257;BME280;56376;53.356;-1.748;2023-03-26T13:22:25;99063.97;;;7.37;80.14
69257;BME280;56376;53.356;-1.748;2023-03-26T13:25:08;99069.97;;;7.40;80.50
69257;BME280;56376;53.356;-1.748;2023-03-26T13:28:38;99074.09;;;7.47;80.18
69257;BME280;56376;53.356;-1.748;2023-03-26T13:30:59;99080.09;;;7.49;79.44
69257;BME280;56376;53.356;-1.748;2023-03-26T13:39:36;99082.47;;;7.55;80.07
69257;BME280;56376;53.356;-1.748;2023-03-26T13:47:28;99101.88;;;7.43;80.12
69257;BME280;56376;53.356;-1.748;2023-03-26T13:50:19;99107.09;;;7.43;80.38
69257;BME280;56376;53.356;-1.748;2023-03-26T13:58:13;99111.31;;;7.47;82.77
69257;BME280;56376;53.356;-1.748;2023-03-26T14:01:06;99112.94;;;7.51;82.79
69257;BME280;56376;53.356;-1.748;2023-03-26T14:03:35;99121.56;;;7.52;82.21
69257;BME280;56376;53.356;-1.748;2023-03-26T14:06:23;99126.75;;;7.52;81.81
69257;BME280;56376;53.356;-1.748;2023-03-26T14:09:04;99133.75;;;7.50;82.25
69257;BME280;56376;53.356;-1.748;2023-03-26T14:11:49;99130.25;;;7.51;82.50
69257;BME280;56376;53.356;-1.748;2023-03-26T14:14:33;99147.53;;;7.53;82.28
69257;BME280;56376;53.356;-1.748;2023-03-26T14:17:09;99149.34;;;7.50;81.39
69257;BME280;56376;53.356;-1.748;2023-03-26T14:25:52;99161.97;;;7.32;80.70
69257;BME280;56376;53.356;-1.748;2023-03-26T14:36:29;99199.41;;;7.25;81.88
69257;BME280;56376;53.356;-1.748;2023-03-26T14:41:51;99197.34;;;7.07;83.56
69257;BME280;56376;53.356;-1.748;2023-03-26T14:47:19;99205.16;;;7.05;85.23
69257;BME280;56376;53.356;-1.748;2023-03-26T14:52:45;99215.50;;;7.07;87.28
69257;BME280;56376;53.356;-1.748;2023-03-26T14:55:45;99221.66;;;7.03;87.66
69257;BME280;56376;53.356;-1.748;2023-03-26T15:01:20;99232.22;;;6.98;88.38
69257;BME280;56376;53.356;-1.748;2023-03-26T15:31:04;99298.00;;;6.97;83.47
69257;BME280;56376;53.356;-1.748;2023-03-26T15:41:45;99332.72;;;6.57;85.63
69257;BME280;56376;53.356;-1.748;2023-03-26T15:58:06;99356.69;;;6.29;91.37
69257;BME280;56376;53.356;-1.748;2023-03-26T16:00:36;99368.88;;;6.26;92.50
69257;BME280;56376;53.356;-1.748;2023-03-26T16:03:26;99381.09;;;6.21;93.69
69257;BME280;56376;53.356;-1.748;2023-03-26T16:06:27;99378.56;;;6.16;94.92
69257;BME280;56376;53.356;-1.748;2023-03-26T16:14:21;99387.13;;;6.21;98.52
69257;BME280;56376;53.356;-1.748;2023-03-26T16:16:49;99389.69;;;6.23;99.40
69257;BME280;56376;53.356;-1.748;2023-03-26T16:22:07;99395.59;;;6.29;100.00
69257;BME280;56376;53.356;-1.748;2023-03-26T16:24:43;99388.63;;;6.33;99.84
69257;BME280;56376;53.356;-1.748;2023-03-26T16:30:24;99397.16;;;6.38;99.47
69257;BME280;56376;53.356;-1.748;2023-03-26T16:32:53;99400.59;;;6.37;99.20
69257;BME280;56376;53.356;-1.748;2023-03-26T16:38:09;99413.53;;;6.40;98.71
69257;BME280;56376;53.356;-1.748;2023-03-26T16:40:53;99416.94;;;6.42;98.14
69257;BME280;56376;53.356;-1.748;2023-03-26T16:52:34;99428.28;;;6.38;98.08
69257;BME280;56376;53.356;-1.748;2023-03-26T16:58:42;99442.25;;;6.31;97.79
69257;BME280;56376;53.356;-1.748;2023-03-26T17:00:47;99449.97;;;6.34;97.16
69257;BME280;56376;53.356;-1.748;2023-03-26T17:21:50;99490.47;;;6.43;94.71
69257;BME280;56376;53.356;-1.748;2023-03-26T17:35:50;99523.38;;;6.39;93.74
69257;BME280;56376;53.356;-1.748;2023-03-26T17:40:54;99535.94;;;6.16;96.08
69257;BME280;56376;53.356;-1.748;2023-03-26T17:43:46;99533.44;;;6.10;96.29
69257;BME280;56376;53.356;-1.748;2023-03-26T17:46:39;99542.09;;;6.09;96.66
69257;BME280;56376;53.356;-1.748;2023-03-26T17:49:13;99539.59;;;6.04;96.41
69257;BME280;56376;53.356;-1.748;2023-03-26T17:51:49;99552.53;;;6.05;96.67
69257;BME280;56376;53.356;-1.748;2023-03-26T17:54:24;99563.75;;;6.07;96.59
69257;BME280;56376;53.356;-1.748;2023-03-26T17:56:52;99562.97;;;6.02;96.61
69257;BME280;56376;53.356;-1.748;2023-03-26T17:59:21;99579.38;;;6.03;96.63
69257;BME280;56376;53.356;-1.748;2023-03-26T18:01:52;99585.41;;;6.03;96.58
69257;BME280;56376;53.356;-1.748;2023-03-26T18:04:27;99581.13;;;6.02;96.82
69257;BME280;56376;53.356;-1.748;2023-03-26T18:10:00;99585.56;;;5.96;96.13
69257;BME280;56376;53.356;-1.748;2023-03-26T18:15:45;99567.41;;;5.94;96.02
69257;BME280;56376;53.356;-1.748;2023-03-26T18:18:17;99572.69;;;5.88;95.85
69257;BME280;56376;53.356;-1.748;2023-03-26T18:20:45;99573.66;;;5.81;96.64
69257;BME280;56376;53.356;-1.748;2023-03-26T18:23:28;99561.59;;;5.78;96.98
69257;BME280;56376;53.356;-1.748;2023-03-26T18:26:30;99556.41;;;5.78;97.54
69257;BME280;56376;53.356;-1.748;2023-03-26T18:29:22;99564.22;;;5.77;96.69
69257;BME280;56376;53.356;-1.748;2023-03-26T18:31:53;99576.56;;;5.61;96.50
69257;BME280;56376;53.356;-1.748;2023-03-26T18:34:20;99590.59;;;5.48;97.51
69257;BME280;56376;53.356;-1.748;2023-03-26T18:36:58;99598.31;;;5.49;97.93
69257;BME280;56376;53.356;-1.748;2023-03-26T18:39:25;99598.31;;;5.49;99.15
69257;BME280;56376;53.356;-1.748;2023-03-26T18:41:51;99606.94;;;5.51;99.24
69257;BME280;56376;53.356;-1.748;2023-03-26T18:44:17;99605.22;;;5.50;99.49
69257;BME280;56376;53.356;-1.748;2023-03-26T18:46:43;99619.19;;;5.40;98.48
69257;BME280;56376;53.356;-1.748;2023-03-26T18:49:11;99628.72;;;5.38;98.83
69257;BME280;56376;53.356;-1.748;2023-03-26T18:51:38;99641.66;;;5.38;99.52
69257;BME280;56376;53.356;-1.748;2023-03-26T18:54:05;99632.16;;;5.40;99.44
69257;BME280;56376;53.356;-1.748;2023-03-26T18:56:39;99641.69;;;5.36;97.79
69257;BME280;56376;53.356;-1.748;2023-03-26T18:59:25;99647.75;;;5.34;98.26
69257;BME280;56376;53.356;-1.748;2023-03-26T19:01:57;99661.56;;;5.36;99.17
69257;BME280;56376;53.356;-1.748;2023-03-26T19:04:24;99665.88;;;5.37;99.35
69257;BME280;56376;53.356;-1.748;2023-03-26T19:06:52;99674.50;;;5.36;100.00
69257;BME280;56376;53.356;-1.748;2023-03-26T19:09:23;99671.88;;;5.39;99.91
69257;BME280;56376;53.356;-1.748;2023-03-26T19:11:56;99675.28;;;5.42;99.64
69257;BME280;56376;53.356;-1.748;2023-03-26T19:14:23;99681.31;;;5.45;99.69
69257;BME280;56376;53.356;-1.748;2023-03-26T19:16:56;99680.41;;;5.47;99.59